sensor_id;sensor_type;location;lat;lon;timestamp;pressure;altitude;pressure_sealevel;temperature;humidity
51603;BME280;37954;51.980;5.850;2023-08-21T00:03:10;101988.16;;;21.36;66.63
51603;BME280;37954;51.980;5.850;2023-08-21T00:07:22;101991.75;;;21.41;66.73
51603;BME280;37954;51.980;5.850;2023-08-21T00:11:34;101973.09;;;21.33;67.13
51603;BME280;37954;51.980;5.850;2023-08-21T00:15:46;101970.34;;;21.28;67.08
51603;BME280;37954;51.980;5.850;2023-08-21T00:19:58;101980.19;;;21.29;67.42
51603;BME280;37954;51.980;5.850;2023-08-21T00:24:10;101982.38;;;21.32;67.59
51603;BME280;37954;51.980;5.850;2023-08-21T00:28:21;101975.69;;;21.18;67.83
51603;BME280;37954;51.980;5.850;2023-08-21T00:32:33;101983.16;;;21.23;68.05
51603;BME280;37954;51.980;5.850;2023-08-21T00:36:46;101962.88;;;21.18;68.38
51603;BME280;37954;51.980;5.850;2023-08-21T00:40:58;101985.94;;;21.33;68.36
51603;BME280;37954;51.980;5.850;2023-08-21T00:45:09;101975.56;;;21.30;68.30
51603;BME280;37954;51.980;5.850;2023-08-21T00:49:22;101983.25;;;21.38;68.54
51603;BME280;37954;51.980;5.850;2023-08-21T00:53:34;101978.34;;;21.40;68.59
51603;BME280;37954;51.980;5.850;2023-08-21T00:57:46;101978.63;;;21.43;68.51
51603;BME280;37954;51.980;5.850;2023-08-21T01:01:58;101987.09;;;21.42;68.42
51603;BME280;37954;51.980;5.850;2023-08-21T01:06:10;101973.66;;;21.35;68.61
51603;BME280;37954;51.980;5.850;2023-08-21T01:10:58;101966.22;;;21.31;68.91
51603;BME280;37954;51.980;5.850;2023-08-21T01:15:13;101965.03;;;21.16;69.11
51603;BME280;37954;51.980;5.850;2023-08-21T01:19:31;101971.56;;;21.10;69.54
51603;BME280;37954;51.980;5.850;2023-08-21T01:23:47;101960.81;;;20.99;69.76
51603;BME280;37954;51.980;5.850;2023-08-21T01:27:59;101958.59;;;20.96;70.06
51603;BME280;37954;51.980;5.850;2023-08-21T01:32:27;101962.94;;;20.87;70.43
51603;BME280;37954;51.980;5.850;2023-08-21T01:36:44;101965.84;;;20.75;70.70
51603;BME280;37954;51.980;5.850;2023-08-21T01:40:57;101970.44;;;20.69;70.83
51603;BME280;37954;51.980;5.850;2023-08-21T01:45:10;101976.41;;;20.66;71.06
51603;BME280;37954;51.980;5.850;2023-08-21T01:49:22;101980.97;;;20.56;71.47
51603;BME280;37954;51.980;5.850;2023-08-21T01:53:33;101975.66;;;20.44;71.61
51603;BME280;37954;51.980;5.850;2023-08-21T01:57:45;101969.94;;;20.40;71.79
51603;BME280;37954;51.980;5.850;2023-08-21T02:01:58;101970.75;;;20.41;71.79
51603;BME280;37954;51.980;5.850;2023-08-21T02:06:10;101963.13;;;20.43;71.93
51603;BME280;37954;51.980;5.850;2023-08-21T02:10:23;101968.66;;;20.53;71.90
51603;BME280;37954;51.980;5.850;2023-08-21T02:14:35;101965.69;;;20.55;71.81
51603;BME280;37954;51.980;5.850;2023-08-21T02:18:47;101971.44;;;20.58;71.69
51603;BME280;37954;51.980;5.850;2023-08-21T02:22:59;101961.56;;;20.52;71.38
51603;BME280;37954;51.980;5.850;2023-08-21T02:27:11;101978.59;;;20.64;71.26
51603;BME280;37954;51.980;5.850;2023-08-21T02:31:23;101974.75;;;20.65;71.14
51603;BME280;37954;51.980;5.850;2023-08-21T02:35:35;101975.34;;;20.67;71.11
51603;BME280;37954;51.980;5.850;2023-08-21T02:39:47;101981.09;;;20.71;70.94
51603;BME280;37954;51.980;5.850;2023-08-21T02:43:59;101976.22;;;20.73;70.78
51603;BME280;37954;51.980;5.850;2023-08-21T02:48:11;101964.41;;;20.67;70.91
51603;BME280;37954;51.980;5.850;2023-08-21T02:52:23;101965.81;;;20.70;70.82
51603;BME280;37954;51.980;5.850;2023-08-21T02:56:35;101974.00;;;20.70;71.04
51603;BME280;37954;51.980;5.850;2023-08-21T03:00:46;101963.06;;;20.70;71.06
51603;BME280;37954;51.980;5.850;2023-08-21T03:04:58;101965.22;;;20.68;71.32
51603;BME280;37954;51.980;5.850;2023-08-21T03:09:10;101983.78;;;20.66;71.41
51603;BME280;37954;51.980;5.850;2023-08-21T03:13:22;101973.94;;;20.65;71.59
51603;BME280;37954;51.980;5.850;2023-08-21T03:17:34;101970.44;;;20.69;71.56
51603;BME280;37954;51.980;5.850;2023-08-21T03:21:46;101980.84;;;20.72;71.45
51603;BME280;37954;51.980;5.850;2023-08-21T03:25:57;101985.19;;;20.68;71.50
51603;BME280;37954;51.980;5.850;2023-08-21T03:30:10;101982.75;;;20.72;71.47
51603;BME280;37954;51.980;5.850;2023-08-21T03:34:22;101979.00;;;20.78;71.29
51603;BME280;37954;51.980;5.850;2023-08-21T03:38:38;101982.50;;;20.78;71.21
51603;BME280;37954;51.980;5.850;2023-08-21T03:42:51;101971.56;;;20.73;70.83
51603;BME280;37954;51.980;5.850;2023-08-21T03:47:04;101983.56;;;20.72;70.89
51603;BME280;37954;51.980;5.850;2023-08-21T03:51:20;101985.19;;;20.68;70.68
51603;BME280;37954;51.980;5.850;2023-08-21T03:55:33;101967.31;;;20.56;70.57
51603;BME280;37954;51.980;5.850;2023-08-21T03:59:45;101966.69;;;20.48;70.63
51603;BME280;37954;51.980;5.850;2023-08-21T04:03:57;101963.81;;;20.33;70.60
51603;BME280;37954;51.980;5.850;2023-08-21T04:08:09;101965.31;;;20.19;70.74
51603;BME280;37954;51.980;5.850;2023-08-21T04:12:21;101971.78;;;20.13;71.16
51603;BME280;37954;51.980;5.850;2023-08-21T04:16:32;101972.81;;;20.07;71.42
51603;BME280;37954;51.980;5.850;2023-08-21T04:20:44;101973.34;;;20.04;71.75
51603;BME280;37954;51.980;5.850;2023-08-21T04:25:00;101979.03;;;20.02;72.10
51603;BME280;37954;51.980;5.850;2023-08-21T04:29:11;101967.13;;;20.08;72.48
51603;BME280;37954;51.980;5.850;2023-08-21T04:33:28;101982.19;;;20.16;72.35
51603;BME280;37954;51.980;5.850;2023-08-21T04:37:47;101976.41;;;20.12;72.25
51603;BME280;37954;51.980;5.850;2023-08-21T04:42:02;101978.31;;;20.12;72.32
51603;BME280;37954;51.980;5.850;2023-08-21T04:46:14;101983.50;;;20.08;72.46
51603;BME280;37954;51.980;5.850;2023-08-21T04:50:28;101987.81;;;20.04;72.63
51603;BME280;37954;51.980;5.850;2023-08-21T04:54:40;101981.00;;;20.07;72.87
51603;BME280;37954;51.980;5.850;2023-08-21T04:58:55;101990.31;;;20.11;72.96
51603;BME280;37954;51.980;5.850;2023-08-21T05:03:09;101990.69;;;20.20;73.05
51603;BME280;37954;51.980;5.850;2023-08-21T05:07:23;101998.66;;;20.26;72.95
51603;BME280;37954;51.980;5.850;2023-08-21T05:11:35;101993.78;;;20.28;72.90
51603;BME280;37954;51.980;5.850;2023-08-21T05:15:54;102002.94;;;20.39;73.01
51603;BME280;37954;51.980;5.850;2023-08-21T05:20:08;102000.47;;;20.37;72.89
51603;BME280;37954;51.980;5.850;2023-08-21T05:24:20;101991.66;;;20.35;73.14
51603;BME280;37954;51.980;5.850;2023-08-21T05:28:37;102008.22;;;20.50;72.89
51603;BME280;37954;51.980;5.850;2023-08-21T05:32:49;102009.50;;;20.70;72.62
51603;BME280;37954;51.980;5.850;2023-08-21T05:37:02;102018.75;;;21.33;72.21
51603;BME280;37954;51.980;5.850;2023-08-21T05:41:15;102010.59;;;21.95;71.08
51603;BME280;37954;51.980;5.850;2023-08-21T05:45:27;102017.56;;;22.38;69.65
51603;BME280;37954;51.980;5.850;2023-08-21T05:49:39;102023.34;;;22.62;67.94
51603;BME280;37954;51.980;5.850;2023-08-21T05:53:51;102018.66;;;22.32;67.28
51603;BME280;37954;51.980;5.850;2023-08-21T05:58:03;102019.16;;;22.09;67.63
51603;BME280;37954;51.980;5.850;2023-08-21T06:02:15;102016.94;;;22.06;67.90
51603;BME280;37954;51.980;5.850;2023-08-21T06:06:27;102026.69;;;22.95;67.69
51603;BME280;37954;51.980;5.850;2023-08-21T06:10:39;102025.09;;;24.48;65.49
51603;BME280;37954;51.980;5.850;2023-08-21T06:14:51;102039.78;;;25.35;61.45
51603;BME280;37954;51.980;5.850;2023-08-21T06:19:03;102031.78;;;25.10;59.50
51603;BME280;37954;51.980;5.850;2023-08-21T06:23:15;102035.97;;;26.02;59.04
51603;BME280;37954;51.980;5.850;2023-08-21T06:27:27;102037.94;;;26.96;56.28
51603;BME280;37954;51.980;5.850;2023-08-21T06:31:38;102045.03;;;27.62;54.07
51603;BME280;37954;51.980;5.850;2023-08-21T06:35:50;102042.59;;;28.37;52.21
51603;BME280;37954;51.980;5.850;2023-08-21T06:40:02;102042.56;;;28.51;50.62
51603;BME280;37954;51.980;5.850;2023-08-21T06:44:14;102039.19;;;28.40;48.90
51603;BME280;37954;51.980;5.850;2023-08-21T06:48:26;102045.75;;;27.67;48.88
51603;BME280;37954;51.980;5.850;2023-08-21T06:52:38;102042.47;;;27.79;49.95
51603;BME280;37954;51.980;5.850;2023-08-21T06:56:50;102035.38;;;28.86;48.54
51603;BME280;37954;51.980;5.850;2023-08-21T07:01:02;102045.94;;;29.77;46.57
51603;BME280;37954;51.980;5.850;2023-08-21T07:05:14;102035.78;;;29.64;44.95
51603;BME280;37954;51.980;5.850;2023-08-21T07:09:26;102046.88;;;30.29;44.50
51603;BME280;37954;51.980;5.850;2023-08-21T07:13:38;102042.09;;;31.07;43.08
51603;BME280;37954;51.980;5.850;2023-08-21T07:17:50;102055.25;;;31.83;41.56
51603;BME280;37954;51.980;5.850;2023-08-21T07:22:02;102042.91;;;32.22;40.19
51603;BME280;37954;51.980;5.850;2023-08-21T07:26:13;102043.31;;;32.54;38.99
51603;BME280;37954;51.980;5.850;2023-08-21T07:30:25;102048.38;;;32.72;37.97
51603;BME280;37954;51.980;5.850;2023-08-21T07:34:37;102052.06;;;32.23;38.50
51603;BME280;37954;51.980;5.850;2023-08-21T07:38:49;102048.78;;;31.62;39.06
51603;BME280;37954;51.980;5.850;2023-08-21T07:43:01;102052.06;;;31.00;39.81
51603;BME280;37954;51.980;5.850;2023-08-21T07:47:13;102053.28;;;30.64;40.84
51603;BME280;37954;51.980;5.850;2023-08-21T07:51:24;102047.25;;;29.88;41.66
51603;BME280;37954;51.980;5.850;2023-08-21T07:55:36;102046.84;;;29.33;42.85
51603;BME280;37954;51.980;5.850;2023-08-21T07:59:48;102057.00;;;29.06;43.48
51603;BME280;37954;51.980;5.850;2023-08-21T08:03:59;102060.78;;;28.88;43.92
51603;BME280;37954;51.980;5.850;2023-08-21T08:08:11;102063.72;;;28.92;43.76
51603;BME280;37954;51.980;5.850;2023-08-21T08:12:23;102064.66;;;28.87;44.34
51603;BME280;37954;51.980;5.850;2023-08-21T08:16:36;102049.31;;;28.81;44.69
51603;BME280;37954;51.980;5.850;2023-08-21T08:20:48;102060.97;;;28.92;44.19
51603;BME280;37954;51.980;5.850;2023-08-21T08:25:00;102058.66;;;28.71;44.65
51603;BME280;37954;51.980;5.850;2023-08-21T08:29:12;102059.72;;;29.60;44.81
51603;BME280;37954;51.980;5.850;2023-08-21T08:33:23;102065.53;;;29.89;43.51
51603;BME280;37954;51.980;5.850;2023-08-21T08:37:35;102050.59;;;31.02;42.57
51603;BME280;37954;51.980;5.850;2023-08-21T08:41:58;102070.72;;;31.55;40.74
51603;BME280;37954;51.980;5.850;2023-08-21T08:46:14;102071.59;;;31.38;40.88
51603;BME280;37954;51.980;5.850;2023-08-21T08:50:32;102055.19;;;31.16;40.79
51603;BME280;37954;51.980;5.850;2023-08-21T08:54:44;102071.25;;;32.15;39.66
51603;BME280;37954;51.980;5.850;2023-08-21T08:58:59;102056.81;;;32.64;38.59
51603;BME280;37954;51.980;5.850;2023-08-21T09:03:11;102084.72;;;33.09;37.30
51603;BME280;37954;51.980;5.850;2023-08-21T09:07:28;102065.31;;;33.45;35.83
51603;BME280;37954;51.980;5.850;2023-08-21T09:11:46;102065.22;;;33.09;36.39
51603;BME280;37954;51.980;5.850;2023-08-21T09:16:06;102047.25;;;32.73;37.25
51603;BME280;37954;51.980;5.850;2023-08-21T09:20:18;102058.03;;;32.75;37.28
51603;BME280;37954;51.980;5.850;2023-08-21T09:24:33;102067.28;;;32.46;37.49
51603;BME280;37954;51.980;5.850;2023-08-21T09:28:46;102065.16;;;32.64;37.36
51603;BME280;37954;51.980;5.850;2023-08-21T09:32:59;102053.91;;;32.93;37.12
51603;BME280;37954;51.980;5.850;2023-08-21T09:37:12;102064.91;;;33.80;37.08
51603;BME280;37954;51.980;5.850;2023-08-21T09:41:25;102067.50;;;34.77;35.41
51603;BME280;37954;51.980;5.850;2023-08-21T09:45:58;102055.16;;;35.22;33.69
51603;BME280;37954;51.980;5.850;2023-08-21T09:50:21;102040.75;;;35.36;33.38
51603;BME280;37954;51.980;5.850;2023-08-21T09:54:41;102041.63;;;35.24;32.74
51603;BME280;37954;51.980;5.850;2023-08-21T09:58:53;102056.72;;;35.82;32.68
51603;BME280;37954;51.980;5.850;2023-08-21T10:03:23;102033.88;;;36.15;31.74
51603;BME280;37954;51.980;5.850;2023-08-21T10:07:50;102039.09;;;36.71;30.84
51603;BME280;37954;51.980;5.850;2023-08-21T10:12:02;102039.03;;;36.90;31.00
51603;BME280;37954;51.980;5.850;2023-08-21T10:16:20;102022.28;;;36.94;29.66
51603;BME280;37954;51.980;5.850;2023-08-21T10:26:18;102025.41;;;37.57;27.92
51603;BME280;37954;51.980;5.850;2023-08-21T10:31:02;102021.69;;;37.76;27.82
51603;BME280;37954;51.980;5.850;2023-08-21T10:35:39;102041.66;;;37.97;27.61
51603;BME280;37954;51.980;5.850;2023-08-21T10:39:56;102026.09;;;37.74;27.46
51603;BME280;37954;51.980;5.850;2023-08-21T10:44:12;102039.41;;;37.80;27.41
51603;BME280;37954;51.980;5.850;2023-08-21T10:48:23;102034.53;;;38.04;27.99
51603;BME280;37954;51.980;5.850;2023-08-21T10:52:40;102041.69;;;38.01;27.10
51603;BME280;37954;51.980;5.850;2023-08-21T10:57:02;102033.91;;;37.87;26.66
51603;BME280;37954;51.980;5.850;2023-08-21T11:01:14;102048.19;;;38.05;26.56
51603;BME280;37954;51.980;5.850;2023-08-21T11:05:27;102043.59;;;37.93;26.26
51603;BME280;37954;51.980;5.850;2023-08-21T11:09:39;102039.19;;;37.92;26.58
51603;BME280;37954;51.980;5.850;2023-08-21T11:13:54;102039.56;;;37.91;26.52
51603;BME280;37954;51.980;5.850;2023-08-21T11:18:06;102034.50;;;37.74;26.63
51603;BME280;37954;51.980;5.850;2023-08-21T11:22:18;102030.84;;;38.00;27.08
51603;BME280;37954;51.980;5.850;2023-08-21T11:26:30;102026.16;;;38.07;27.13
51603;BME280;37954;51.980;5.850;2023-08-21T11:30:42;102020.97;;;38.09;26.29
51603;BME280;37954;51.980;5.850;2023-08-21T11:34:55;102025.84;;;37.86;27.06
51603;BME280;37954;51.980;5.850;2023-08-21T11:39:07;102030.34;;;37.64;26.67
51603;BME280;37954;51.980;5.850;2023-08-21T11:43:20;102028.88;;;37.74;26.44
51603;BME280;37954;51.980;5.850;2023-08-21T11:47:33;102012.38;;;37.69;25.90
51603;BME280;37954;51.980;5.850;2023-08-21T11:51:46;102005.16;;;37.45;26.29
51603;BME280;37954;51.980;5.850;2023-08-21T11:55:57;101995.66;;;37.26;26.48
51603;BME280;37954;51.980;5.850;2023-08-21T12:00:09;102010.91;;;37.29;26.74
51603;BME280;37954;51.980;5.850;2023-08-21T12:04:24;102004.22;;;37.14;26.59
51603;BME280;37954;51.980;5.850;2023-08-21T12:08:37;102005.47;;;37.17;26.51
51603;BME280;37954;51.980;5.850;2023-08-21T12:12:49;101998.91;;;37.06;26.43
51603;BME280;37954;51.980;5.850;2023-08-21T12:17:01;101997.38;;;36.89;26.67
51603;BME280;37954;51.980;5.850;2023-08-21T12:21:13;101993.66;;;36.81;26.66
51603;BME280;37954;51.980;5.850;2023-08-21T12:25:24;101990.47;;;36.64;26.43
51603;BME280;37954;51.980;5.850;2023-08-21T12:29:36;101986.53;;;36.45;26.82
51603;BME280;37954;51.980;5.850;2023-08-21T12:33:48;101999.91;;;36.17;27.03
51603;BME280;37954;51.980;5.850;2023-08-21T12:38:00;101981.63;;;35.69;27.42
51603;BME280;37954;51.980;5.850;2023-08-21T12:42:16;101981.06;;;35.28;28.04
51603;BME280;37954;51.980;5.850;2023-08-21T12:46:29;101989.69;;;34.92;28.81
51603;BME280;37954;51.980;5.850;2023-08-21T12:50:41;101962.38;;;34.41;29.56
51603;BME280;37954;51.980;5.850;2023-08-21T12:54:53;101953.47;;;34.23;29.52
51603;BME280;37954;51.980;5.850;2023-08-21T12:59:05;101976.38;;;34.17;30.08
51603;BME280;37954;51.980;5.850;2023-08-21T13:03:16;101959.13;;;33.99;30.23
51603;BME280;37954;51.980;5.850;2023-08-21T13:07:38;101961.84;;;33.83;31.16
51603;BME280;37954;51.980;5.850;2023-08-21T13:11:50;101962.66;;;33.60;31.51
51603;BME280;37954;51.980;5.850;2023-08-21T13:16:01;101969.53;;;33.38;31.52
51603;BME280;37954;51.980;5.850;2023-08-21T13:20:15;101978.59;;;33.35;31.53
51603;BME280;37954;51.980;5.850;2023-08-21T13:24:27;101974.63;;;33.24;31.88
51603;BME280;37954;51.980;5.850;2023-08-21T13:28:40;101980.63;;;33.01;31.70
51603;BME280;37954;51.980;5.850;2023-08-21T13:32:51;101951.91;;;32.76;31.67
51603;BME280;37954;51.980;5.850;2023-08-21T13:37:03;101960.69;;;32.66;32.15
51603;BME280;37954;51.980;5.850;2023-08-21T13:41:15;101952.19;;;32.63;31.95
51603;BME280;37954;51.980;5.850;2023-08-21T13:45:27;101954.75;;;32.56;31.33
51603;BME280;37954;51.980;5.850;2023-08-21T13:49:39;101959.56;;;32.46;31.33
51603;BME280;37954;51.980;5.850;2023-08-21T13:53:50;101946.91;;;32.37;31.65
51603;BME280;37954;51.980;5.850;2023-08-21T13:58:02;101943.31;;;32.15;31.06
51603;BME280;37954;51.980;5.850;2023-08-21T14:02:14;101941.53;;;31.90;31.55
51603;BME280;37954;51.980;5.850;2023-08-21T14:06:26;101920.47;;;31.68;31.17
51603;BME280;37954;51.980;5.850;2023-08-21T14:10:38;101947.91;;;31.70;31.98
51603;BME280;37954;51.980;5.850;2023-08-21T14:14:50;101944.75;;;31.51;31.89
51603;BME280;37954;51.980;5.850;2023-08-21T14:19:01;101937.94;;;31.39;31.83
51603;BME280;37954;51.980;5.850;2023-08-21T14:23:14;101924.28;;;31.26;31.62
51603;BME280;37954;51.980;5.850;2023-08-21T14:27:27;101916.69;;;31.14;31.79
51603;BME280;37954;51.980;5.850;2023-08-21T14:31:38;101897.38;;;31.09;32.27
51603;BME280;37954;51.980;5.850;2023-08-21T14:35:52;101904.25;;;31.03;33.07
51603;BME280;37954;51.980;5.850;2023-08-21T14:40:04;101918.38;;;30.89;32.97
51603;BME280;37954;51.980;5.850;2023-08-21T14:44:19;101917.06;;;30.87;33.17
51603;BME280;37954;51.980;5.850;2023-08-21T14:48:31;101905.69;;;30.79;33.65
51603;BME280;37954;51.980;5.850;2023-08-21T14:52:43;101900.31;;;30.66;33.57
51603;BME280;37954;51.980;5.850;2023-08-21T14:56:55;101889.59;;;30.47;33.31
51603;BME280;37954;51.980;5.850;2023-08-21T15:01:06;101892.06;;;30.40;32.97
51603;BME280;37954;51.980;5.850;2023-08-21T15:05:19;101895.81;;;30.35;32.74
51603;BME280;37954;51.980;5.850;2023-08-21T15:09:33;101900.03;;;30.33;32.96
51603;BME280;37954;51.980;5.850;2023-08-21T15:13:48;101874.31;;;30.15;33.23
51603;BME280;37954;51.980;5.850;2023-08-21T15:18:00;101881.34;;;30.04;34.10
51603;BME280;37954;51.980;5.850;2023-08-21T15:22:12;101873.50;;;29.97;34.45
51603;BME280;37954;51.980;5.850;2023-08-21T15:26:24;101879.72;;;30.03;34.41
51603;BME280;37954;51.980;5.850;2023-08-21T15:30:36;101859.94;;;29.78;34.20
51603;BME280;37954;51.980;5.850;2023-08-21T15:34:49;101872.19;;;29.69;34.85
51603;BME280;37954;51.980;5.850;2023-08-21T15:39:00;101866.97;;;29.59;35.25
51603;BME280;37954;51.980;5.850;2023-08-21T15:43:13;101843.31;;;29.44;35.48
51603;BME280;37954;51.980;5.850;2023-08-21T15:47:24;101856.34;;;29.52;35.37
51603;BME280;37954;51.980;5.850;2023-08-21T15:51:43;101858.63;;;29.41;35.76
51603;BME280;37954;51.980;5.850;2023-08-21T15:55:56;101860.22;;;29.34;35.78
51603;BME280;37954;51.980;5.850;2023-08-21T16:00:08;101842.94;;;29.20;35.71
51603;BME280;37954;51.980;5.850;2023-08-21T16:04:20;101851.38;;;29.15;35.10
51603;BME280;37954;51.980;5.850;2023-08-21T16:08:31;101839.16;;;29.07;35.24
51603;BME280;37954;51.980;5.850;2023-08-21T16:12:43;101842.88;;;29.02;35.33
51603;BME280;37954;51.980;5.850;2023-08-21T16:16:55;101840.25;;;28.97;35.46
51603;BME280;37954;51.980;5.850;2023-08-21T16:21:08;101832.06;;;28.84;35.97
51603;BME280;37954;51.980;5.850;2023-08-21T16:25:20;101842.13;;;28.80;35.82
51603;BME280;37954;51.980;5.850;2023-08-21T16:29:32;101841.28;;;28.70;35.75
51603;BME280;37954;51.980;5.850;2023-08-21T16:34:12;101847.25;;;28.64;36.39
51603;BME280;37954;51.980;5.850;2023-08-21T16:38:25;101830.88;;;28.45;36.41
51603;BME280;37954;51.980;5.850;2023-08-21T16:42:37;101842.25;;;28.44;36.03
51603;BME280;37954;51.980;5.850;2023-08-21T16:46:49;101834.59;;;28.40;36.70
51603;BME280;37954;51.980;5.850;2023-08-21T16:51:01;101820.25;;;28.30;37.06
51603;BME280;37954;51.980;5.850;2023-08-21T16:55:13;101813.31;;;28.19;37.21
51603;BME280;37954;51.980;5.850;2023-08-21T16:59:24;101809.75;;;28.18;37.70
51603;BME280;37954;51.980;5.850;2023-08-21T17:03:36;101811.81;;;28.13;37.78
51603;BME280;37954;51.980;5.850;2023-08-21T17:07:48;101810.19;;;28.12;37.84
51603;BME280;37954;51.980;5.850;2023-08-21T17:12:00;101797.16;;;28.03;37.74
51603;BME280;37954;51.980;5.850;2023-08-21T17:16:12;101817.09;;;28.00;37.90
51603;BME280;37954;51.980;5.850;2023-08-21T17:20:24;101813.09;;;27.84;38.38
51603;BME280;37954;51.980;5.850;2023-08-21T17:24:37;101819.00;;;27.69;38.76
51603;BME280;37954;51.980;5.850;2023-08-21T17:28:48;101817.84;;;27.56;39.07
51603;BME280;37954;51.980;5.850;2023-08-21T17:33:01;101821.38;;;27.48;39.84
51603;BME280;37954;51.980;5.850;2023-08-21T17:37:13;101817.94;;;27.29;40.04
51603;BME280;37954;51.980;5.850;2023-08-21T17:41:25;101804.34;;;27.19;40.60
51603;BME280;37954;51.980;5.850;2023-08-21T17:45:37;101799.88;;;27.09;41.13
51603;BME280;37954;51.980;5.850;2023-08-21T17:49:49;101798.16;;;26.99;41.83
51603;BME280;37954;51.980;5.850;2023-08-21T17:54:00;101808.25;;;26.90;41.89
51603;BME280;37954;51.980;5.850;2023-08-21T17:58:12;101817.03;;;26.79;42.53
51603;BME280;37954;51.980;5.850;2023-08-21T18:02:24;101816.00;;;26.61;43.07
51603;BME280;37954;51.980;5.850;2023-08-21T18:06:38;101815.38;;;26.50;43.48
51603;BME280;37954;51.980;5.850;2023-08-21T18:10:50;101803.13;;;26.43;43.58
51603;BME280;37954;51.980;5.850;2023-08-21T18:15:03;101798.22;;;26.40;43.87
51603;BME280;37954;51.980;5.850;2023-08-21T18:19:15;101808.31;;;26.30;44.51
51603;BME280;37954;51.980;5.850;2023-08-21T18:23:30;101797.94;;;26.22;44.87
51603;BME280;37954;51.980;5.850;2023-08-21T18:27:42;101808.53;;;26.15;44.82
51603;BME280;37954;51.980;5.850;2023-08-21T18:31:54;101812.81;;;26.08;45.21
51603;BME280;37954;51.980;5.850;2023-08-21T18:36:05;101797.72;;;25.86;45.85
51603;BME280;37954;51.980;5.850;2023-08-21T18:40:17;101791.06;;;25.74;46.31
51603;BME280;37954;51.980;5.850;2023-08-21T18:44:29;101808.25;;;25.65;46.61
51603;BME280;37954;51.980;5.850;2023-08-21T18:48:41;101803.47;;;25.52;47.22
51603;BME280;37954;51.980;5.850;2023-08-21T18:52:53;101805.38;;;25.33;47.89
51603;BME280;37954;51.980;5.850;2023-08-21T18:57:04;101827.53;;;25.23;48.48
51603;BME280;37954;51.980;5.850;2023-08-21T19:01:16;101821.72;;;25.06;49.20
51603;BME280;37954;51.980;5.850;2023-08-21T19:05:29;101827.25;;;25.01;49.81
51603;BME280;37954;51.980;5.850;2023-08-21T19:09:41;101842.22;;;24.89;50.32
51603;BME280;37954;51.980;5.850;2023-08-21T19:13:53;101838.84;;;24.74;51.33
51603;BME280;37954;51.980;5.850;2023-08-21T19:18:06;101835.47;;;24.53;51.74
51603;BME280;37954;51.980;5.850;2023-08-21T19:22:18;101834.53;;;24.39;52.58
51603;BME280;37954;51.980;5.850;2023-08-21T19:26:30;101846.69;;;24.27;53.17
51603;BME280;37954;51.980;5.850;2023-08-21T19:30:42;101855.75;;;24.28;53.55
51603;BME280;37954;51.980;5.850;2023-08-21T19:34:57;101848.72;;;24.12;53.90
51603;BME280;37954;51.980;5.850;2023-08-21T19:39:09;101845.25;;;24.01;54.50
51603;BME280;37954;51.980;5.850;2023-08-21T19:43:21;101859.53;;;23.98;54.82
51603;BME280;37954;51.980;5.850;2023-08-21T19:47:33;101853.34;;;23.82;55.28
51603;BME280;37954;51.980;5.850;2023-08-21T19:51:45;101863.84;;;23.70;55.57
51603;BME280;37954;51.980;5.850;2023-08-21T19:55:57;101855.66;;;23.65;56.19
51603;BME280;37954;51.980;5.850;2023-08-21T20:00:09;101865.81;;;23.59;56.22
51603;BME280;37954;51.980;5.850;2023-08-21T20:04:21;101854.34;;;23.47;56.69
51603;BME280;37954;51.980;5.850;2023-08-21T20:08:33;101845.31;;;23.42;56.98
51603;BME280;37954;51.980;5.850;2023-08-21T20:12:45;101848.94;;;23.32;57.28
51603;BME280;37954;51.980;5.850;2023-08-21T20:16:57;101848.94;;;23.27;57.51
51603;BME280;37954;51.980;5.850;2023-08-21T20:21:10;101856.38;;;23.21;57.78
51603;BME280;37954;51.980;5.850;2023-08-21T20:25:22;101854.50;;;23.17;58.00
51603;BME280;37954;51.980;5.850;2023-08-21T20:29:34;101845.47;;;23.11;58.32
51603;BME280;37954;51.980;5.850;2023-08-21T20:33:45;101839.47;;;22.99;58.48
51603;BME280;37954;51.980;5.850;2023-08-21T20:37:57;101853.47;;;22.98;58.62
51603;BME280;37954;51.980;5.850;2023-08-21T20:42:09;101852.09;;;22.90;58.85
51603;BME280;37954;51.980;5.850;2023-08-21T20:46:21;101862.78;;;22.86;59.17
51603;BME280;37954;51.980;5.850;2023-08-21T20:50:33;101852.38;;;22.73;59.63
51603;BME280;37954;51.980;5.850;2023-08-21T20:54:44;101853.78;;;22.61;60.05
51603;BME280;37954;51.980;5.850;2023-08-21T20:58:57;101862.56;;;22.52;60.58
51603;BME280;37954;51.980;5.850;2023-08-21T21:03:08;101852.72;;;22.41;61.03
51603;BME280;37954;51.980;5.850;2023-08-21T21:07:20;101862.31;;;22.34;61.32
51603;BME280;37954;51.980;5.850;2023-08-21T21:11:35;101862.03;;;22.25;61.84
51603;BME280;37954;51.980;5.850;2023-08-21T21:15:46;101852.75;;;22.16;62.10
51603;BME280;37954;51.980;5.850;2023-08-21T21:19:58;101850.25;;;22.09;62.53
51603;BME280;37954;51.980;5.850;2023-08-21T21:24:10;101851.63;;;22.02;62.85
51603;BME280;37954;51.980;5.850;2023-08-21T21:28:23;101848.28;;;21.89;63.39
51603;BME280;37954;51.980;5.850;2023-08-21T21:32:35;101846.63;;;21.83;63.63
51603;BME280;37954;51.980;5.850;2023-08-21T21:36:47;101841.72;;;21.80;63.95
51603;BME280;37954;51.980;5.850;2023-08-21T21:40:58;101848.25;;;21.69;64.26
51603;BME280;37954;51.980;5.850;2023-08-21T21:45:10;101830.75;;;21.65;64.69
51603;BME280;37954;51.980;5.850;2023-08-21T21:49:22;101840.03;;;21.59;64.90
51603;BME280;37954;51.980;5.850;2023-08-21T21:53:34;101844.41;;;21.55;65.02
51603;BME280;37954;51.980;5.850;2023-08-21T21:57:46;101834.81;;;21.52;65.19
51603;BME280;37954;51.980;5.850;2023-08-21T22:01:58;101831.28;;;21.47;65.43
51603;BME280;37954;51.980;5.850;2023-08-21T22:06:09;101835.09;;;21.46;65.55
51603;BME280;37954;51.980;5.850;2023-08-21T22:10:23;101820.03;;;21.43;65.86